Time;durP1;ratioP1;P1;durP2;ratioP2;P2;SDS_P1;SDS_P2;PMS_P1;PMS_P2;Temp;Humidity;BMP_temperature;BMP_pressure;BME280_temperature;BME280_humidity;BME280_pressure;Samples;Min_cycle;Max_cycle;Signal;HPM_P1;HPM_P2
2023/04/22 00:02:15;;;;;;;;;;;8.40;99.90;;;;;;5071007;28;19925;-69
2023/04/22 00:04:44;;;;;;;;;;;8.40;99.90;;;;;;5074303;28;19928;-69
2023/04/22 00:07:13;;;;;;;;;;;8.40;99.90;;;;;;5071225;28;19925;-67
2023/04/22 00:09:40;;;;;;;;;;;8.40;99.90;;;;;;5074790;28;19924;-69
2023/04/22 00:12:07;;;;;;;;;;;8.40;99.90;;;;;;5083807;28;19924;-69
2023/04/22 00:14:33;;;;;;;;;;;8.40;99.90;;;;;;5069579;28;19924;-69
2023/04/22 00:17:00;;;;;;;;;;;8.40;99.90;;;;;;5074562;28;20007;-68
2023/04/22 00:19:27;;;;;;;;;;;8.40;99.90;;;;;;5071010;28;20395;-69
2023/04/22 00:21:54;;;;;;;;;;;8.40;99.90;;;;;;5070703;28;19924;-68
2023/04/22 00:24:22;;;;;;;;;;;8.40;99.90;;;;;;5074586;28;19925;-69
2023/04/22 00:26:49;;;;;;;;;;;8.40;99.90;;;;;;5070662;28;19924;-69
2023/04/22 00:29:16;;;;;;;;;;;;;;;;;;5086740;28;19955;-69
2023/04/22 00:31:43;;;;;;;;;;;;;;;;;;5074364;28;19934;-69
2023/04/22 00:34:10;;;;;;;;;;;8.50;99.90;;;;;;5073183;28;19973;-69
2023/04/22 00:36:37;;;;;;;;;;;8.60;99.90;;;;;;5074885;28;20322;-69
2023/04/22 00:39:05;;;;;;;;;;;8.70;99.90;;;;;;5071552;28;19924;-69
2023/04/22 00:41:32;;;;;;;;;;;;;;;;;;5074473;28;19931;-68
2023/04/22 00:44:00;;;;;;;;;;;8.60;99.90;;;;;;5072507;28;20330;-67
2023/04/22 00:46:27;;;;;;;;;;;8.60;99.90;;;;;;5070623;28;20345;-69
2023/04/22 00:48:55;;;;;;;;;;;8.60;99.90;;;;;;5073876;28;19924;-70
2023/04/22 00:51:21;;;;;;;;;;;8.60;99.90;;;;;;5073677;28;19981;-70
2023/04/22 00:53:48;;;;;;;;;;;8.60;99.90;;;;;;5072488;28;19924;-68
2023/04/22 00:56:15;;;;;;;;;;;8.60;99.90;;;;;;5073970;28;19963;-69
2023/04/22 00:58:42;;;;;;;;;;;8.50;99.90;;;;;;5074156;28;19978;-69
2023/04/22 01:01:11;;;;;;;;;;;8.40;99.90;;;;;;5072463;28;19982;-69
2023/04/22 01:03:38;;;;;;;;;;;8.50;99.90;;;;;;5073949;28;19924;-69
2023/04/22 01:06:05;;;;;;;;;;;;;;;;;;5074217;28;19932;-69
2023/04/22 01:08:32;;;;;;;;;;;;;;;;;;5070531;28;19930;-69
2023/04/22 01:10:59;;;;;;;;;;;;;;;;;;5072720;28;19924;-68
2023/04/22 01:13:26;;;;;;;;;;;;;;;;;;5068236;28;19928;-69
2023/04/22 01:15:54;;;;;;;;;;;;;;;;;;5073066;28;19924;-70
2023/04/22 01:18:22;;;;;;;;;;;;;;;;;;5073765;28;20410;-68
2023/04/22 01:20:49;;;;;;;;;;;;;;;;;;5073770;28;20418;-69
2023/04/22 01:23:18;;;;;;;;;;;;;;;;;;5069384;28;20310;-68
2023/04/22 01:25:45;;;;;;;;;;;;;;;;;;5071503;28;19928;-67
2023/04/22 01:28:12;;;;;;;;;;;;;;;;;;5074738;28;19928;-68
2023/04/22 01:30:39;;;;;;;;;;;;;;;;;;5072579;28;20450;-69
2023/04/22 01:33:07;;;;;;;;;;;;;;;;;;5077450;28;20342;-69
2023/04/22 01:35:36;;;;;;;;;;;;;;;;;;5068844;28;19924;-68
2023/04/22 01:38:03;;;;;;;;;;;;;;;;;;5075036;28;20026;-68
2023/04/22 01:40:30;;;;;;;;;;;;;;;;;;5069433;28;19924;-69
2023/04/22 01:42:59;;;;;;;;;;;8.50;99.90;;;;;;5075408;28;20098;-69
2023/04/22 01:45:26;;;;;;;;;;;8.50;99.90;;;;;;5077804;28;19924;-68
2023/04/22 01:47:54;;;;;;;;;;;;;;;;;;5081830;28;19967;-68
2023/04/22 01:50:21;;;;;;;;;;;;;;;;;;5076412;28;19924;-69
2023/04/22 01:52:48;;;;;;;;;;;8.70;99.90;;;;;;5069369;28;19947;-69
2023/04/22 01:55:15;;;;;;;;;;;;;;;;;;5071206;28;19934;-69
2023/04/22 01:57:43;;;;;;;;;;;;;;;;;;5072259;28;19924;-68
2023/04/22 02:00:12;;;;;;;;;;;8.60;99.90;;;;;;5073539;28;20011;-69
2023/04/22 02:02:39;;;;;;;;;;;8.60;99.90;;;;;;5086716;28;20546;-67
2023/04/22 02:05:07;;;;;;;;;;;8.70;99.90;;;;;;5076362;28;19931;-69
2023/04/22 02:07:35;;;;;;;;;;;8.70;99.90;;;;;;5074585;28;19951;-69
2023/04/22 02:10:03;;;;;;;;;;;8.70;99.90;;;;;;5067952;28;19925;-69
2023/04/22 02:12:31;;;;;;;;;;;;;;;;;;5062791;28;20306;-70
2023/04/22 02:14:58;;;;;;;;;;;;;;;;;;5077045;28;20383;-69
2023/04/22 02:17:25;;;;;;;;;;;;;;;;;;5076934;28;20334;-69
2023/04/22 02:19:53;;;;;;;;;;;;;;;;;;5076689;28;20387;-70
2023/04/22 02:22:21;;;;;;;;;;;8.80;99.90;;;;;;5076918;28;19931;-69
2023/04/22 02:24:51;;;;;;;;;;;;;;;;;;5071781;28;20390;-69
2023/04/22 02:27:18;;;;;;;;;;;;;;;;;;5076768;28;19924;-69
2023/04/22 02:29:48;;;;;;;;;;;;;;;;;;5074622;28;19990;-69
2023/04/22 02:32:17;;;;;;;;;;;;;;;;;;5076837;28;20331;-68
2023/04/22 02:34:44;;;;;;;;;;;;;;;;;;5076492;28;19924;-69
2023/04/22 02:37:11;;;;;;;;;;;;;;;;;;5076480;28;19966;-69
2023/04/22 02:39:38;;;;;;;;;;;;;;;;;;5076897;28;19924;-70
2023/04/22 02:42:05;;;;;;;;;;;;;;;;;;5076250;28;19928;-67
2023/04/22 02:44:32;;;;;;;;;;;;;;;;;;5078537;28;19970;-69
2023/04/22 02:46:59;;;;;;;;;;;;;;;;;;5076195;28;19928;-70
2023/04/22 02:49:27;;;;;;;;;;;;;;;;;;5075529;28;19932;-69
2023/04/22 02:51:54;;;;;;;;;;;;;;;;;;5076167;28;19928;-68
2023/04/22 02:54:21;;;;;;;;;;;;;;;;;;5070720;28;19924;-69
2023/04/22 02:56:48;;;;;;;;;;;;;;;;;;5075965;28;20287;-67
2023/04/22 02:59:15;;;;;;;;;;;;;;;;;;5067747;28;20458;-69
2023/04/22 03:01:42;;;;;;;;;;;;;;;;;;5076352;28;19935;-69
2023/04/22 03:04:14;;;;;;;;;;;;;;;;;;5075742;28;20454;-69
2023/04/22 03:06:41;;;;;;;;;;;;;;;;;;5069662;28;19931;-69
2023/04/22 03:09:09;;;;;;;;;;;9.00;99.90;;;;;;5073014;28;19932;-69
2023/04/22 03:11:36;;;;;;;;;;;;;;;;;;5075670;28;20355;-69
2023/04/22 03:14:03;;;;;;;;;;;;;;;;;;5074085;28;19924;-69
2023/04/22 03:16:31;;;;;;;;;;;;;;;;;;5075314;28;19924;-69
2023/04/22 03:19:00;;;;;;;;;;;;;;;;;;5075941;28;19924;-68
2023/04/22 03:21:28;;;;;;;;;;;;;;;;;;5072081;28;19928;-69
2023/04/22 03:23:55;;;;;;;;;;;;;;;;;;5075433;28;20018;-69
2023/04/22 03:26:22;;;;;;;;;;;;;;;;;;5075761;28;19931;-68
2023/04/22 03:28:49;;;;;;;;;;;;;;;;;;5075949;28;19924;-69
2023/04/22 03:31:16;;;;;;;;;;;;;;;;;;5075927;28;19931;-68
2023/04/22 03:33:44;;;;;;;;;;;;;;;;;;5072423;28;19925;-68
2023/04/22 03:36:20;;;;;;;;;;;;;;;;;;5074748;28;19924;-68
2023/04/22 03:38:47;;;;;;;;;;;;;;;;;;5070086;28;19930;-69
2023/04/22 03:41:14;;;;;;;;;;;;;;;;;;5075416;28;19928;-68
2023/04/22 03:43:46;;;;;;;;;;;;;;;;;;5075306;28;20023;-70
2023/04/22 03:46:13;;;;;;;;;;;;;;;;;;5075164;28;19924;-68
2023/04/22 03:48:44;;;;;;;;;;;;;;;;;;5069911;28;20294;-69
2023/04/22 03:51:19;;;;;;;;;;;;;;;;;;5075488;28;20023;-69
2023/04/22 03:53:46;;;;;;;;;;;;;;;;;;5067329;28;19993;-69
2023/04/22 03:56:18;;;;;;;;;;;;;;;;;;5058780;28;19925;-69
2023/04/22 03:58:46;;;;;;;;;;;;;;;;;;5072784;28;19966;-67
2023/04/22 04:01:13;;;;;;;;;;;;;;;;;;5075030;28;20453;-69
2023/04/22 04:03:43;;;;;;;;;;;;;;;;;;5073457;28;19961;-67
2023/04/22 04:06:12;;;;;;;;;;;;;;;;;;5074131;28;19964;-70
2023/04/22 04:08:39;;;;;;;;;;;;;;;;;;5073271;28;19924;-69
2023/04/22 04:11:06;;;;;;;;;;;;;;;;;;5074223;28;19981;-69
2023/04/22 04:13:33;;;;;;;;;;;;;;;;;;5074729;28;19924;-69
2023/04/22 04:16:12;;;;;;;;;;;;;;;;;;5069647;28;20271;-69
2023/04/22 04:18:42;;;;;;;;;;;;;;;;;;5072887;28;20023;-69
2023/04/22 04:21:09;;;;;;;;;;;;;;;;;;5074819;28;19963;-69
2023/04/22 04:23:41;;;;;;;;;;;;;;;;;;5072629;28;20441;-69
2023/04/22 04:26:08;;;;;;;;;;;;;;;;;;5067388;28;20334;-68
2023/04/22 04:28:40;;;;;;;;;;;;;;;;;;5072323;28;19992;-68
2023/04/22 04:31:07;;;;;;;;;;;;;;;;;;5068801;28;20013;-69
2023/04/22 04:33:35;;;;;;;;;;;;;;;;;;5074345;28;19928;-69
2023/04/22 04:36:03;;;;;;;;;;;;;;;;;;5074381;28;20371;-69
2023/04/22 04:38:33;;;;;;;;;;;;;;;;;;5071321;28;19932;-69
2023/04/22 04:41:00;;;;;;;;;;;;;;;;;;5074663;28;19931;-70
2023/04/22 04:43:29;;;;;;;;;;;;;;;;;;5069089;28;19928;-69
2023/04/22 04:46:09;;;;;;;;;;;;;;;;;;5082458;28;19973;-69
2023/04/22 04:48:37;;;;;;;;;;;;;;;;;;5068507;28;20398;-69
2023/04/22 04:51:08;;;;;;;;;;;;;;;;;;5074480;28;20394;-69
2023/04/22 04:53:45;;;;;;;;;;;;;;;;;;5072853;28;19924;-69
2023/04/22 04:56:12;;;;;;;;;;;;;;;;;;5073970;28;19982;-69
2023/04/22 04:58:39;;;;;;;;;;;;;;;;;;5074383;28;19924;-69
2023/04/22 05:01:17;;;;;;;;;;;;;;;;;;5072921;28;19955;-68
2023/04/22 05:03:46;;;;;;;;;;;;;;;;;;5070524;28;19967;-68
2023/04/22 05:06:15;;;;;;;;;;;;;;;;;;5069344;28;19932;-69
2023/04/22 05:08:47;;;;;;;;;;;;;;;;;;5074370;28;19924;-69
2023/04/22 05:11:14;;;;;;;;;;;;;;;;;;5074314;28;19964;-69
2023/04/22 05:13:42;;;;;;;;;;;;;;;;;;5067581;28;19924;-68
2023/04/22 05:16:13;;;;;;;;;;;;;;;;;;5074024;28;19968;-69
2023/04/22 05:18:41;;;;;;;;;;;;;;;;;;5074153;28;19924;-67
2023/04/22 05:21:10;;;;;;;;;;;;;;;;;;5067777;28;19965;-69
2023/04/22 05:23:37;;;;;;;;;;;;;;;;;;5073732;28;19947;-69
2023/04/22 05:26:06;;;;;;;;;;;;;;;;;;5071411;28;19932;-68
2023/04/22 05:28:34;;;;;;;;;;;;;;;;;;5064535;28;19931;-69
2023/04/22 05:31:01;;;;;;;;;;;;;;;;;;5072344;28;19924;-70
2023/04/22 05:33:30;;;;;;;;;;;;;;;;;;5063349;28;20011;-70
2023/04/22 05:35:57;;;;;;;;;;;;;;;;;;5073637;28;20395;-70
2023/04/22 05:38:24;;;;;;;;;;;;;;;;;;5074977;28;19931;-69
2023/04/22 05:40:52;;;;;;;;;;;;;;;;;;5078179;28;19928;-69
2023/04/22 05:43:20;;;;;;;;;;;;;;;;;;5077477;28;19927;-69
2023/04/22 05:45:53;;;;;;;;;;;;;;;;;;5078166;28;20436;-69
2023/04/22 05:48:21;;;;;;;;;;;;;;;;;;5077644;28;19969;-68
2023/04/22 05:50:58;;;;;;;;;;;;;;;;;;5074656;28;19925;-68
2023/04/22 05:53:27;;;;;;;;;;;;;;;;;;5072016;28;19931;-69
2023/04/22 05:55:54;;;;;;;;;;;;;;;;;;5077446;28;19927;-69
2023/04/22 05:58:21;;;;;;;;;;;;;;;;;;5077445;28;19924;-69
2023/04/22 06:01:15;;;;;;;;;;;;;;;;;;5089277;28;19993;-68
2023/04/22 06:03:56;;;;;;;;;;;;;;;;;;5081215;28;19977;-69
2023/04/22 06:06:23;;;;;;;;;;;;;;;;;;5080112;28;19927;-69
2023/04/22 06:08:50;;;;;;;;;;;;;;;;;;5075268;28;19935;-70
2023/04/22 06:11:17;;;;;;;;;;;;;;;;;;5079576;28;19928;-69
2023/04/22 06:13:44;;;;;;;;;;;;;;;;;;5077382;28;19924;-69
2023/04/22 06:16:12;;;;;;;;;;;;;;;;;;5071351;28;19929;-68
2023/04/22 06:18:39;;;;;;;;;;;;;;;;;;5080182;28;19939;-69
2023/04/22 06:21:10;;;;;;;;;;;;;;;;;;5079048;28;20345;-69
2023/04/22 06:23:37;;;;;;;;;;;;;;;;;;5079873;28;19978;-69
2023/04/22 06:26:04;;;;;;;;;;;;;;;;;;5076992;28;19931;-69
2023/04/22 06:28:32;;;;;;;;;;;;;;;;;;5079157;28;20394;-69
2023/04/22 06:31:04;;;;;;;;;;;;;;;;;;5075466;28;20018;-69
2023/04/22 06:33:31;;;;;;;;;;;;;;;;;;5077730;28;19924;-69
2023/04/22 06:35:58;;;;;;;;;;;;;;;;;;5076208;28;19931;-68
2023/04/22 06:38:26;;;;;;;;;;;;;;;;;;5076377;28;20026;-69
2023/04/22 06:41:28;;;;;;;;;;;;;;;;;;5014329;28;19936;-69
2023/04/22 06:44:00;;;;;;;;;;;;;;;;;;5058403;28;19950;-69
2023/04/22 06:46:50;;;;;;;;;;;;;;;;;;5075438;28;19946;-71
2023/04/22 06:49:38;;;;;;;;;;;;;;;;;;5091759;28;20066;-71
2023/04/22 06:52:23;;;;;;;;;;;;;;;;;;5094681;28;19930;-72
2023/04/22 06:54:52;;;;;;;;;;;;;;;;;;5074887;28;19969;-71
2023/04/22 06:57:19;;;;;;;;;;;;;;;;;;5075509;28;19931;-70
2023/04/22 06:59:46;;;;;;;;;;;;;;;;;;5079932;28;19939;-68
2023/04/22 07:02:13;;;;;;;;;;;;;;;;;;5076547;28;19924;-75
2023/04/22 07:04:40;;;;;;;;;;;;;;;;;;5075706;28;19924;-71
2023/04/22 07:07:08;;;;;;;;;;;;;;;;;;5081215;28;19932;-70
2023/04/22 07:09:35;;;;;;;;;;;;;;;;;;5076392;28;19924;-70
2023/04/22 07:12:03;;;;;;;;;;;;;;;;;;5076288;28;20003;-71
2023/04/22 07:14:31;;;;;;;;;;;;;;;;;;5075554;28;20345;-71
2023/04/22 07:16:58;;;;;;;;;;;;;;;;;;5075506;28;19932;-71
2023/04/22 07:19:25;;;;;;;;;;;;;;;;;;5075650;28;20343;-71
2023/04/22 07:21:52;;;;;;;;;;;;;;;;;;5070613;28;19924;-71
2023/04/22 07:24:19;;;;;;;;;;;;;;;;;;5068091;28;19924;-71
2023/04/22 07:26:46;;;;;;;;;;;;;;;;;;5080798;28;19932;-71
2023/04/22 07:29:14;;;;;;;;;;;;;;;;;;5075858;28;19924;-72
2023/04/22 07:31:41;;;;;;;;;;;;;;;;;;5078670;28;20385;-71
2023/04/22 07:34:09;;;;;;;;;;;;;;;;;;5068283;28;20082;-72
2023/04/22 07:36:36;;;;;;;;;;;;;;;;;;5075292;28;19939;-71
2023/04/22 07:39:03;;;;;;;;;;;;;;;;;;5069376;28;19924;-72
2023/04/22 07:41:30;;;;;;;;;;;;;;;;;;5075404;28;19928;-72
2023/04/22 07:43:57;;;;;;;;;;;;;;;;;;5075054;28;19924;-72
2023/04/22 07:46:24;;;;;;;;;;;;;;;;;;5075020;28;19993;-73
2023/04/22 07:48:51;;;;;;;;;;;;;;;;;;5075024;28;19924;-72
2023/04/22 07:51:18;;;;;;;;;;;;;;;;;;5067492;28;19928;-72
2023/04/22 07:53:45;;;;;;;;;;;;;;;;;;5075083;28;19924;-72
2023/04/22 07:56:13;;;;;;;;;;;;;;;;;;5074803;28;19973;-72
2023/04/22 07:58:40;;;;;;;;;;;;;;;;;;5073833;28;19925;-72
2023/04/22 08:01:07;;;;;;;;;;;;;;;;;;5074923;28;19924;-73
2023/04/22 08:03:34;;;;;;;;;;;;;;;;;;5073507;28;19924;-71
2023/04/22 08:06:01;;;;;;;;;;;;;;;;;;5074934;28;19924;-72
2023/04/22 08:08:28;;;;;;;;;;;;;;;;;;5071904;28;19931;-72
2023/04/22 08:10:55;;;;;;;;;;;;;;;;;;5075493;28;19929;-73
2023/04/22 08:13:22;;;;;;;;;;;;;;;;;;5072017;28;20387;-72
2023/04/22 08:15:49;;;;;;;;;;;;;;;;;;5074078;28;20317;-72
2023/04/22 08:18:16;;;;;;;;;;;;;;;;;;5071763;28;20276;-72
2023/04/22 08:20:43;;;;;;;;;;;;;;;;;;5077717;28;19931;-73
2023/04/22 08:23:10;;;;;;;;;;;;;;;;;;5072208;28;19932;-73
2023/04/22 08:25:38;;;;;;;;;;;;;;;;;;5092366;28;20387;-72
2023/04/22 08:28:05;;;;;;;;;;;;;;;;;;5081145;28;19924;-72
2023/04/22 08:30:32;;;;;;;;;;;;;;;;;;5073666;28;19966;-72
2023/04/22 08:32:59;;;;;;;;;;;;;;;;;;5074857;28;19928;-72
2023/04/22 08:35:26;;;;;;;;;;;;;;;;;;5081625;28;19924;-75
2023/04/22 08:37:53;;;;;;;;;;;;;;;;;;5074440;28;20384;-72
2023/04/22 08:40:20;;;;;;;;;;;;;;;;;;5069675;28;20369;-72
2023/04/22 08:42:47;;;;;;;;;;;;;;;;;;5073956;28;19932;-72
2023/04/22 08:45:14;;;;;;;;;;;;;;;;;;5078051;28;19993;-72
2023/04/22 08:47:42;;;;;;;;;;;;;;;;;;5073986;28;19924;-72
2023/04/22 08:50:09;;;;;;;;;;;;;;;;;;5075915;28;20010;-72
2023/04/22 08:52:36;;;;;;;;;;;;;;;;;;5073636;28;19924;-72
2023/04/22 08:55:03;;;;;;;;;;;;;;;;;;5074012;28;20340;-72
2023/04/22 08:57:30;;;;;;;;;;;;;;;;;;5075758;28;19924;-72
2023/04/22 08:59:57;;;;;;;;;;;;;;;;;;5073954;28;19924;-72
2023/04/22 09:02:24;;;;;;;;;;;;;;;;;;5074032;28;19924;-72
2023/04/22 09:04:52;;;;;;;;;;;;;;;;;;5067767;28;20015;-72
2023/04/22 09:07:19;;;;;;;;;;;;;;;;;;5068564;28;20358;-72
2023/04/22 09:09:46;;;;;;;;;;;;;;;;;;5074014;28;19974;-72
2023/04/22 09:12:14;;;;;;;;;;;;;;;;;;5080341;28;20311;-71
2023/04/22 09:14:41;;;;;;;;;;;;;;;;;;5073507;28;19924;-72
2023/04/22 09:17:08;;;;;;;;;;;;;;;;;;5066909;28;20390;-72
2023/04/22 09:19:35;;;;;;;;;;;;;;;;;;5073467;28;19924;-72
2023/04/22 09:22:02;;;;;;;;;;;;;;;;;;5079954;28;19924;-72
2023/04/22 09:24:29;;;;;;;;;;;;;;;;;;5073564;28;19924;-72
2023/04/22 09:26:56;;;;;;;;;;;;;;;;;;5070827;28;19928;-72
2023/04/22 09:29:23;;;;;;;;;;;;;;;;;;5074012;28;19950;-72
2023/04/22 09:31:50;;;;;;;;;;;;;;;;;;5061453;28;19940;-73
2023/04/22 09:34:17;;;;;;;;;;;;;;;;;;5066774;28;19924;-73
2023/04/22 09:36:45;;;;;;;;;;;;;;;;;;5073284;28;19927;-73
2023/04/22 09:39:13;;;;;;;;;;;;;;;;;;5068077;28;19924;-73
2023/04/22 09:41:40;;;;;;;;;;;;;;;;;;5071856;28;19936;-72
2023/04/22 09:44:07;;;;;;;;;;;;;;;;;;5073764;28;20379;-72
2023/04/22 09:46:34;;;;;;;;;;;;;;;;;;5073603;28;19925;-72
2023/04/22 09:49:01;;;;;;;;;;;;;;;;;;5059687;28;19945;-72
2023/04/22 09:51:28;;;;;;;;;;;;;;;;;;5073710;28;19950;-73
2023/04/22 09:53:55;;;;;;;;;;;;;;;;;;5067487;28;19973;-72
2023/04/22 09:56:23;;;;;;;;;;;;;;;;;;5071065;28;20337;-73
2023/04/22 09:58:50;;;;;;;;;;;;;;;;;;5073486;28;19932;-74
2023/04/22 10:01:17;;;;;;;;;;;;;;;;;;5075216;28;20353;-71
2023/04/22 10:03:44;;;;;;;;;;;;;;;;;;5074269;28;19980;-74
2023/04/22 10:06:12;;;;;;;;;;;;;;;;;;5069693;28;19980;-72
2023/04/22 10:08:39;;;;;;;;;;;;;;;;;;5075463;28;20399;-73
2023/04/22 10:11:06;;;;;;;;;;;;;;;;;;5072997;28;19973;-72
2023/04/22 10:13:35;;;;;;;;;;;;;;;;;;5081316;28;19977;-73
2023/04/22 10:16:02;;;;;;;;;;;;;;;;;;5071004;28;19924;-70
2023/04/22 10:18:29;;;;;;;;;;;;;;;;;;5076898;28;19924;-71
2023/04/22 10:20:56;;;;;;;;;;;;;;;;;;5071615;28;19931;-70
2023/04/22 10:23:23;;;;;;;;;;;;;;;;;;5076839;28;20446;-71
2023/04/22 10:25:50;;;;;;;;;;;;;;;;;;5075606;28;19977;-70
2023/04/22 10:28:18;;;;;;;;;;;;;;;;;;5073485;28;19967;-70
2023/04/22 10:30:45;;;;;;;;;;;;;;;;;;5076171;28;20046;-72
2023/04/22 10:33:12;;;;;;;;;;;;;;;;;;5073956;28;19946;-71
2023/04/22 10:35:39;;;;;;;;;;;;;;;;;;5082331;28;20334;-71
2023/04/22 10:38:06;;;;;;;;;;;;;;;;;;5076669;28;20038;-70
2023/04/22 10:40:33;;;;;;;;;;;;;;;;;;5070588;28;19925;-70
2023/04/22 10:43:02;;;;;;;;;;;;;;;;;;5076663;28;19924;-71
2023/04/22 10:45:29;;;;;;;;;;;;;;;;;;5076430;28;20363;-71
2023/04/22 10:47:56;;;;;;;;;;;;;;;;;;5092760;28;19985;-71
2023/04/22 10:50:25;;;;;;;;;;;;;;;;;;5081486;28;20403;-71
2023/04/22 10:52:52;;;;;;;;;;;;;;;;;;5076075;28;20311;-71
2023/04/22 10:55:20;;;;;;;;;;;;;;;;;;5076727;28;19931;-71
2023/04/22 11:03:44;;;;;;;;;;;;;;;;;;5089808;28;19939;-71
2023/04/22 11:06:12;;;;;;;;;;;;;;;;;;5071109;28;19924;-71
2023/04/22 11:08:39;;;;;;;;;;;;;;;;;;5075578;28;19924;-72
2023/04/22 11:11:06;;;;;;;;;;;;;;;;;;5075851;28;19928;-73
2023/04/22 11:13:33;;;;;;;;;;;;;;;;;;5082304;28;19924;-73
2023/04/22 11:16:00;;;;;;;;;;;;;;;;;;5075489;28;19924;-74
2023/04/22 11:18:27;;;;;;;;;;;;;;;;;;5075740;28;20035;-73
2023/04/22 11:20:54;;;;;;;;;;;;;;;;;;5082470;28;20297;-73
2023/04/22 11:23:21;;;;;;;;;;;;;;;;;;5061273;28;19990;-73
2023/04/22 11:25:48;;;;;;;;;;;;;;;;;;5074122;28;19924;-73
2023/04/22 11:28:16;;;;;;;;;;;;;;;;;;5075737;28;20368;-73
2023/04/22 11:30:43;;;;;;;;;;;;;;;;;;5070179;28;19932;-73
2023/04/22 11:33:10;;;;;;;;;;;;;;;;;;5074070;28;19932;-73
2023/04/22 11:35:38;;;;;;;;;;;;;;;;;;5085197;28;19924;-74
2023/04/22 11:38:07;;;;;;;;;;;;;;;;;;5074864;28;19971;-72
2023/04/22 11:40:34;;;;;;;;;;;;;;;;;;5075948;28;19931;-71
2023/04/22 11:43:01;;;;;;;;;;;;;;;;;;5075283;28;19970;-71
2023/04/22 11:45:28;;;;;;;;;;;;;;;;;;5071159;28;19925;-70
2023/04/22 11:47:55;;;;;;;;;;;;;;;;;;5090744;28;19931;-71
2023/04/22 11:50:22;;;;;;;;;;;;;;;;;;5074479;28;19950;-71
2023/04/22 11:52:49;;;;;;;;;;;;;;;;;;5075059;28;19928;-72
2023/04/22 11:55:17;;;;;;;;;;;;;;;;;;5075179;28;19928;-71
2023/04/22 11:57:44;;;;;;;;;;;;;;;;;;5063307;28;20007;-71
2023/04/22 12:00:11;;;;;;;;;;;;;;;;;;5069776;28;19935;-71
2023/04/22 12:02:38;;;;;;;;;;;;;;;;;;5074751;28;19931;-71
2023/04/22 12:05:05;;;;;;;;;;;;;;;;;;5072556;28;20007;-71
2023/04/22 12:07:33;;;;;;;;;;;;;;;;;;5073618;28;19935;-71
2023/04/22 12:10:01;;;;;;;;;;;;;;;;;;5074845;28;19928;-71
2023/04/22 12:12:28;;;;;;;;;;;;;;;;;;5074766;28;19924;-70
2023/04/22 12:14:56;;;;;;;;;;;;;;;;;;5079915;28;19931;-71
2023/04/22 12:17:24;;;;;;;;;;;;;;;;;;5074237;28;20023;-71
2023/04/22 12:19:51;;;;;;;;;;;;;;;;;;5074958;28;19982;-71
2023/04/22 12:22:18;;;;;;;;;;;;;;;;;;5072692;28;19930;-72
2023/04/22 12:24:45;;;;;;;;;;;;;;;;;;5070526;28;19928;-69
2023/04/22 12:27:13;;;;;;;;;;;;;;;;;;5074536;28;19934;-71
2023/04/22 12:29:40;;;;;;;;;;;;;;;;;;5069710;28;19924;-72
2023/04/22 12:32:07;;;;;;;;;;;;;;;;;;5074446;28;19924;-70
2023/04/22 12:34:34;;;;;;;;;;;;;;;;;;5070040;28;19930;-72
2023/04/22 12:37:01;;;;;;;;;;;;;;;;;;5070817;28;19928;-71
2023/04/22 12:39:28;;;;;;;;;;;;;;;;;;5075410;28;19931;-71
2023/04/22 12:41:56;;;;;;;;;;;;;;;;;;5073076;28;19924;-70
2023/04/22 12:44:23;;;;;;;;;;;;;;;;;;5074236;28;19931;-70
2023/04/22 12:46:50;;;;;;;;;;;;;;;;;;5073373;28;19928;-71
2023/04/22 12:49:17;;;;;;;;;;;;;;;;;;5074532;28;20322;-70
2023/04/22 12:51:44;;;;;;;;;;;;;;;;;;5072107;28;19928;-70
2023/04/22 12:54:12;;;;;;;;;;;;;;;;;;5071223;28;20290;-69
2023/04/22 12:56:39;;;;;;;;;;;;;;;;;;5069798;28;19932;-71
2023/04/22 12:59:06;;;;;;;;;;;;;;;;;;5071718;28;19928;-71
2023/04/22 13:01:33;;;;;;;;;;;;;;;;;;5066379;28;20433;-71
2023/04/22 13:04:00;;;;;;;;;;;;;;;;;;5074354;28;19924;-70
2023/04/22 13:06:27;;;;;;;;;;;;;;;;;;5076803;28;19924;-70
2023/04/22 13:08:56;;;;;;;;;;;;;;;;;;5070339;28;20422;-70
2023/04/22 13:11:24;;;;;;;;;;;;;;;;;;5074947;28;19928;-69
2023/04/22 13:13:51;;;;;;;;;;;;;;;;;;5070760;28;19924;-73
2023/04/22 13:16:19;;;;;;;;;;;;;;;;;;5071590;28;19924;-71
2023/04/22 13:18:47;;;;;;;;;;;;;;;;;;5069572;28;19924;-71
2023/04/22 13:21:14;;;;;;;;;;;;;;;;;;5063582;28;19924;-70
2023/04/22 13:23:42;;;;;;;;;;;;;;;;;;5064817;28;20342;-71
2023/04/22 13:26:09;;;;;;;;;;;;;;;;;;5075958;28;19924;-71
2023/04/22 13:28:36;;;;;;;;;;;;;;;;;;5069963;28;19931;-71
2023/04/22 13:31:03;;;;;;;;;;;;;;;;;;5068699;28;19932;-70
2023/04/22 13:33:30;;;;;;;;;;;;;;;;;;5075927;28;19938;-71
2023/04/22 13:35:57;;;;;;;;;;;;;;;;;;5073341;28;19931;-70
2023/04/22 13:38:25;;;;;;;;;;;;;;;;;;5068382;28;19924;-70
2023/04/22 13:40:52;;;;;;;;;;;;;;;;;;5062333;28;20288;-70
2023/04/22 13:43:19;;;;;;;;;;;;;;;;;;5065989;28;19975;-69
2023/04/22 13:45:47;;;;;;;;;;;;;;;;;;5071809;28;19931;-69
2023/04/22 13:48:14;;;;;;;;;;;;;;;;;;5069399;28;20027;-69
2023/04/22 13:50:41;;;;;;;;;;;;;;;;;;5069177;28;19924;-70
2023/04/22 13:53:09;;;;;;;;;;;;;;;;;;5079070;28;19924;-69
2023/04/22 13:55:36;;;;;;;;;;;;;;;;;;5071327;28;19931;-70
2023/04/22 13:58:04;;;;;;;;;;;;;;;;;;5077463;28;19985;-69
2023/04/22 14:00:31;;;;;;;;;;;;;;;;;;5076683;28;20399;-69
2023/04/22 14:02:58;;;;;;;;;;;;;;;;;;5080469;28;19924;-69
2023/04/22 14:05:25;;;;;;;;;;;;;;;;;;5072657;28;19923;-70
2023/04/22 14:07:52;;;;;;;;;;;;;;;;;;5076737;28;19924;-70
2023/04/22 14:10:20;;;;;;;;;;;;;;;;;;5074211;28;19931;-69
2023/04/22 14:12:48;;;;;;;;;;;;;;;;;;5070637;28;19924;-70
2023/04/22 14:15:15;;;;;;;;;;;;;;;;;;5074583;28;20306;-70
2023/04/22 14:17:42;;;;;;;;;;;;;;;;;;5070989;28;19927;-69
2023/04/22 14:20:09;;;;;;;;;;;;;;;;;;5073167;28;19924;-70
2023/04/22 14:22:37;;;;;;;;;;;;;;;;;;5067501;28;19924;-69
2023/04/22 14:25:04;;;;;;;;;;;;;;;;;;5073615;28;19935;-70
2023/04/22 14:27:31;;;;;;;;;;;;;;;;;;5075723;28;20341;-69
2023/04/22 14:29:58;;;;;;;;;;;;;;;;;;5075706;28;20011;-70
2023/04/22 14:32:25;;;;;;;;;;;;;;;;;;5065921;28;19924;-70
2023/04/22 14:34:53;;;;;;;;;;;;;;;;;;5069987;28;20012;-69
2023/04/22 14:37:20;;;;;;;;;;;;;;;;;;5076270;28;19932;-69
2023/04/22 14:39:47;;;;;;;;;;;;;;;;;;5075991;28;19924;-70
2023/04/22 14:42:17;;;;;;;;;;;;;;;;;;5069123;28;20028;-73
2023/04/22 14:44:44;;;;;;;;;;;;;;;;;;5074464;28;19963;-69
2023/04/22 14:47:11;;;;;;;;;;;;;;;;;;5070417;28;19924;-68
2023/04/22 14:49:38;;;;;;;;;;;;;;;;;;5074515;28;19924;-71
2023/04/22 14:52:05;;;;;;;;;;;;;;;;;;5066475;28;20345;-69
2023/04/22 14:54:32;;;;;;;;;;;;;;;;;;5074397;28;19928;-76
2023/04/22 14:57:00;;;;;;;;;;;;;;;;;;5077017;28;20331;-73
2023/04/22 14:59:27;;;;;;;;;;;;;;;;;;5072204;28;19924;-69
2023/04/22 15:01:54;;;;;;;;;;;;;;;;;;5071333;28;20441;-71
2023/04/22 15:04:21;;;;;;;;;;;;;;;;;;5075869;28;19924;-70
2023/04/22 15:06:48;;;;;;;;;;;;;;;;;;5071297;28;19924;-72
2023/04/22 15:09:15;;;;;;;;;;;;;;;;;;5064412;28;19932;-70
2023/04/22 15:11:42;;;;;;;;;;;;;;;;;;5072241;28;19931;-70
2023/04/22 15:14:10;;;;;;;;;;;;;;;;;;5076441;28;19932;-70
2023/04/22 15:16:37;;;;;;;;;;;;;;;;;;5072001;28;20375;-70
2023/04/22 15:19:04;;;;;;;;;;;;;;;;;;5087148;28;19978;-70
2023/04/22 15:21:32;;;;;;;;;;;;;;;;;;5077541;28;19925;-70
2023/04/22 15:23:59;;;;;;;;;;;;;;;;;;5073827;28;19924;-70
2023/04/22 15:26:26;;;;;;;;;;;;;;;;;;5081338;28;20387;-71
2023/04/22 15:28:54;;;;;;;;;;;;;;;;;;5074281;28;19981;-71
2023/04/22 15:31:21;;;;;;;;;;;;;;;;;;5061797;28;19925;-70
2023/04/22 15:33:49;;;;;;;;;;;;;;;;;;5071888;28;20334;-70
2023/04/22 15:36:19;;;;;;;;;;;;;;;;;;5070996;28;19924;-71
2023/04/22 15:38:47;;;;;;;;;;;;;;;;;;5067775;28;19932;-69
2023/04/22 15:41:14;;;;;;;;;;;;;;;;;;5072487;28;19930;-71
2023/04/22 15:43:41;;;;;;;;;;;;;;;;;;5070091;28;19959;-70
2023/04/22 15:46:08;;;;;;;;;;;;;;;;;;5072435;28;19924;-71
2023/04/22 15:48:35;;;;;;;;;;;;;;;;;;5072117;28;19924;-76
2023/04/22 15:51:02;;;;;;;;;;;;;;;;;;5075032;28;20018;-71
2023/04/22 15:53:29;;;;;;;;;;;;;;;;;;5064581;28;19932;-72
2023/04/22 15:55:56;;;;;;;;;;;;;;;;;;5069777;28;19928;-71
2023/04/22 15:58:24;;;;;;;;;;;;;;;;;;5066130;28;19928;-71
2023/04/22 16:00:51;;;;;;;;;;;;;;;;;;5070504;28;19932;-70
2023/04/22 16:03:18;;;;;;;;;;;;;;;;;;5069080;28;19930;-72
2023/04/22 16:05:45;;;;;;;;;;;;;;;;;;5064276;28;19928;-71
2023/04/22 16:08:13;;;;;;;;;;;;;;;;;;5074159;28;19967;-72
2023/04/22 16:10:40;;;;;;;;;;;;;;;;;;5061247;28;20058;-71
2023/04/22 16:13:07;;;;;;;;;;;;;;;;;;5059714;28;19928;-71
2023/04/22 16:15:34;;;;;;;;;;;;;;;;;;5066741;28;19947;-71
2023/04/22 16:18:01;;;;;;;;;;;;;;;;;;5062696;28;20001;-73
2023/04/22 16:20:28;;;;;;;;;;;;;;;;;;5069800;28;20318;-72
2023/04/22 16:22:55;;;;;;;;;;;;;;;;;;5063654;28;19932;-71
2023/04/22 16:25:23;;;;;;;;;;;;;;;;;;5068367;28;20563;-71
2023/04/22 16:27:50;;;;;;;;;;;;;;;;;;5077974;28;19924;-71
2023/04/22 16:30:17;;;;;;;;;;;;;;;;;;5073338;28;19993;-71
2023/04/22 16:32:44;;;;;;;;;;;;;;;;;;5070203;28;19925;-72
2023/04/22 16:35:11;;;;;;;;;;;;;;;;;;5071192;28;19974;-72
2023/04/22 16:37:38;;;;;;;;;;;;;;;;;;5064985;28;20418;-72
2023/04/22 16:40:05;;;;;;;;;;;;;;;;;;5068896;28;19935;-72
2023/04/22 16:42:33;;;;;;;;;;;;;;;;;;5067848;28;19953;-72
2023/04/22 16:45:00;;;;;;;;;;;;;;;;;;5067771;28;19931;-72